sensor_id;sensor_type;location;lat;lon;timestamp;temperature;humidity
22827;DHT22;11580;52.562;13.418;2022-10-16T00:01:30;19.60;43.00
22827;DHT22;11580;52.562;13.418;2022-10-16T00:03:59;19.60;43.20
22827;DHT22;11580;52.562;13.418;2022-10-16T00:06:28;19.60;43.10
22827;DHT22;11580;52.562;13.418;2022-10-16T00:08:57;19.60;43.10
22827;DHT22;11580;52.562;13.418;2022-10-16T00:11:26;19.60;43.90
22827;DHT22;11580;52.562;13.418;2022-10-16T00:13:56;19.70;43.30
22827;DHT22;11580;52.562;13.418;2022-10-16T00:16:27;19.70;43.30
22827;DHT22;11580;52.562;13.418;2022-10-16T00:18:55;19.80;43.30
22827;DHT22;11580;52.562;13.418;2022-10-16T00:21:24;19.80;43.30
22827;DHT22;11580;52.562;13.418;2022-10-16T00:23:54;19.80;43.10
22827;DHT22;11580;52.562;13.418;2022-10-16T00:26:27;19.90;43.10
22827;DHT22;11580;52.562;13.418;2022-10-16T00:28:55;19.90;43.00
22827;DHT22;11580;52.562;13.418;2022-10-16T00:31:23;19.90;42.80
22827;DHT22;11580;52.562;13.418;2022-10-16T00:33:52;20.00;42.80
22827;DHT22;11580;52.562;13.418;2022-10-16T00:36:21;20.00;42.80
22827;DHT22;11580;52.562;13.418;2022-10-16T00:38:50;20.00;42.80
22827;DHT22;11580;52.562;13.418;2022-10-16T00:41:20;20.00;42.80
22827;DHT22;11580;52.562;13.418;2022-10-16T00:43:51;20.00;42.80
22827;DHT22;11580;52.562;13.418;2022-10-16T00:46:22;20.00;42.80
22827;DHT22;11580;52.562;13.418;2022-10-16T00:48:55;20.00;42.80
22827;DHT22;11580;52.562;13.418;2022-10-16T00:51:30;20.00;43.50
22827;DHT22;11580;52.562;13.418;2022-10-16T00:54:01;20.00;42.80
22827;DHT22;11580;52.562;13.418;2022-10-16T00:56:31;20.00;42.80
22827;DHT22;11580;52.562;13.418;2022-10-16T00:59:01;20.00;43.50
22827;DHT22;11580;52.562;13.418;2022-10-16T01:01:31;19.90;42.70
22827;DHT22;11580;52.562;13.418;2022-10-16T01:04:00;19.90;42.70
22827;DHT22;11580;52.562;13.418;2022-10-16T01:06:32;19.90;43.40
22827;DHT22;11580;52.562;13.418;2022-10-16T01:09:16;19.90;43.00
22827;DHT22;11580;52.562;13.418;2022-10-16T01:11:55;19.90;43.20
22827;DHT22;11580;52.562;13.418;2022-10-16T01:14:34;19.80;43.10
22827;DHT22;11580;52.562;13.418;2022-10-16T01:17:12;19.90;43.00
22827;DHT22;11580;52.562;13.418;2022-10-16T01:20:01;19.80;42.80
22827;DHT22;11580;52.562;13.418;2022-10-16T01:22:40;19.80;43.90
22827;DHT22;11580;52.562;13.418;2022-10-16T01:25:19;19.80;43.00
22827;DHT22;11580;52.562;13.418;2022-10-16T01:27:53;19.80;43.00
22827;DHT22;11580;52.562;13.418;2022-10-16T01:30:23;19.80;42.90
22827;DHT22;11580;52.562;13.418;2022-10-16T01:32:57;19.80;43.00
22827;DHT22;11580;52.562;13.418;2022-10-16T01:35:30;19.70;43.90
22827;DHT22;11580;52.562;13.418;2022-10-16T01:38:03;19.80;43.20
22827;DHT22;11580;52.562;13.418;2022-10-16T01:40:36;19.80;43.10
22827;DHT22;11580;52.562;13.418;2022-10-16T01:43:10;19.80;43.80
22827;DHT22;11580;52.562;13.418;2022-10-16T01:45:40;19.80;43.30
22827;DHT22;11580;52.562;13.418;2022-10-16T01:48:12;19.80;43.10
22827;DHT22;11580;52.562;13.418;2022-10-16T01:50:44;19.80;43.30
22827;DHT22;11580;52.562;13.418;2022-10-16T01:53:16;19.80;43.30
22827;DHT22;11580;52.562;13.418;2022-10-16T01:55:46;19.80;43.10
22827;DHT22;11580;52.562;13.418;2022-10-16T01:58:17;19.80;43.30
22827;DHT22;11580;52.562;13.418;2022-10-16T02:00:46;19.80;43.30
22827;DHT22;11580;52.562;13.418;2022-10-16T02:03:17;19.80;43.30
22827;DHT22;11580;52.562;13.418;2022-10-16T02:05:49;19.80;43.30
22827;DHT22;11580;52.562;13.418;2022-10-16T02:08:20;19.80;43.30
22827;DHT22;11580;52.562;13.418;2022-10-16T02:10:49;19.80;43.30
22827;DHT22;11580;52.562;13.418;2022-10-16T02:13:21;19.80;43.30
22827;DHT22;11580;52.562;13.418;2022-10-16T02:15:54;19.80;43.50
22827;DHT22;11580;52.562;13.418;2022-10-16T02:18:21;19.80;43.30
22827;DHT22;11580;52.562;13.418;2022-10-16T02:20:51;19.90;43.30
22827;DHT22;11580;52.562;13.418;2022-10-16T02:23:27;19.90;43.40
22827;DHT22;11580;52.562;13.418;2022-10-16T02:26:00;19.90;43.40
22827;DHT22;11580;52.562;13.418;2022-10-16T02:28:37;19.90;43.20
22827;DHT22;11580;52.562;13.418;2022-10-16T02:31:10;19.90;43.30
22827;DHT22;11580;52.562;13.418;2022-10-16T02:33:40;19.90;43.20
22827;DHT22;11580;52.562;13.418;2022-10-16T02:36:10;20.00;43.20
22827;DHT22;11580;52.562;13.418;2022-10-16T02:38:39;20.00;43.70
22827;DHT22;11580;52.562;13.418;2022-10-16T02:41:08;20.00;43.00
22827;DHT22;11580;52.562;13.418;2022-10-16T02:43:36;20.00;43.70
22827;DHT22;11580;52.562;13.418;2022-10-16T02:46:04;20.00;43.00
22827;DHT22;11580;52.562;13.418;2022-10-16T02:48:31;20.00;42.90
22827;DHT22;11580;52.562;13.418;2022-10-16T02:50:58;20.00;42.80
22827;DHT22;11580;52.562;13.418;2022-10-16T02:53:26;20.00;42.80
22827;DHT22;11580;52.562;13.418;2022-10-16T02:55:53;20.00;42.80
22827;DHT22;11580;52.562;13.418;2022-10-16T02:58:20;20.10;43.60
22827;DHT22;11580;52.562;13.418;2022-10-16T03:00:48;20.00;42.80
22827;DHT22;11580;52.562;13.418;2022-10-16T03:03:15;20.00;42.80
22827;DHT22;11580;52.562;13.418;2022-10-16T03:05:43;20.00;42.60
22827;DHT22;11580;52.562;13.418;2022-10-16T03:08:11;20.00;42.60
22827;DHT22;11580;52.562;13.418;2022-10-16T03:10:38;20.00;42.50
22827;DHT22;11580;52.562;13.418;2022-10-16T03:13:05;20.00;42.50
22827;DHT22;11580;52.562;13.418;2022-10-16T03:15:33;19.90;43.10
22827;DHT22;11580;52.562;13.418;2022-10-16T03:18:01;19.90;42.30
22827;DHT22;11580;52.562;13.418;2022-10-16T03:20:28;19.90;43.20
22827;DHT22;11580;52.562;13.418;2022-10-16T03:22:55;19.80;43.10
22827;DHT22;11580;52.562;13.418;2022-10-16T03:25:23;19.80;42.60
22827;DHT22;11580;52.562;13.418;2022-10-16T03:27:50;19.70;43.20
22827;DHT22;11580;52.562;13.418;2022-10-16T03:30:17;19.60;43.20
22827;DHT22;11580;52.562;13.418;2022-10-16T03:32:44;19.60;42.40
22827;DHT22;11580;52.562;13.418;2022-10-16T03:35:13;19.50;42.40
22827;DHT22;11580;52.562;13.418;2022-10-16T03:37:40;19.50;42.80
22827;DHT22;11580;52.562;13.418;2022-10-16T03:40:08;19.50;42.70
22827;DHT22;11580;52.562;13.418;2022-10-16T03:42:36;19.40;42.70
22827;DHT22;11580;52.562;13.418;2022-10-16T03:45:04;19.40;42.80
22827;DHT22;11580;52.562;13.418;2022-10-16T03:47:32;19.30;42.80
22827;DHT22;11580;52.562;13.418;2022-10-16T03:49:59;19.30;42.90
22827;DHT22;11580;52.562;13.418;2022-10-16T03:52:27;19.20;42.90
22827;DHT22;11580;52.562;13.418;2022-10-16T03:54:55;19.20;43.20
22827;DHT22;11580;52.562;13.418;2022-10-16T03:57:23;19.20;43.20
22827;DHT22;11580;52.562;13.418;2022-10-16T03:59:50;19.20;43.30
22827;DHT22;11580;52.562;13.418;2022-10-16T04:02:17;19.10;43.40
22827;DHT22;11580;52.562;13.418;2022-10-16T04:04:44;19.10;44.20
22827;DHT22;11580;52.562;13.418;2022-10-16T04:07:11;19.10;43.70
22827;DHT22;11580;52.562;13.418;2022-10-16T04:09:40;19.10;43.90
22827;DHT22;11580;52.562;13.418;2022-10-16T04:12:07;19.10;44.00
22827;DHT22;11580;52.562;13.418;2022-10-16T04:14:34;19.10;43.90
22827;DHT22;11580;52.562;13.418;2022-10-16T04:17:02;19.10;43.90
22827;DHT22;11580;52.562;13.418;2022-10-16T04:19:29;19.10;44.00
22827;DHT22;11580;52.562;13.418;2022-10-16T04:21:56;19.10;44.00
22827;DHT22;11580;52.562;13.418;2022-10-16T04:24:23;19.00;44.70
22827;DHT22;11580;52.562;13.418;2022-10-16T04:26:52;19.00;43.90
22827;DHT22;11580;52.562;13.418;2022-10-16T04:29:19;19.10;44.20
22827;DHT22;11580;52.562;13.418;2022-10-16T04:31:47;19.00;43.90
22827;DHT22;11580;52.562;13.418;2022-10-16T04:34:14;19.00;43.90
22827;DHT22;11580;52.562;13.418;2022-10-16T04:36:41;19.00;43.90
22827;DHT22;11580;52.562;13.418;2022-10-16T04:39:08;19.00;44.00
22827;DHT22;11580;52.562;13.418;2022-10-16T04:41:35;19.00;44.00
22827;DHT22;11580;52.562;13.418;2022-10-16T04:44:04;18.90;43.90
22827;DHT22;11580;52.562;13.418;2022-10-16T04:46:31;18.90;44.50
22827;DHT22;11580;52.562;13.418;2022-10-16T04:48:58;18.90;44.00
22827;DHT22;11580;52.562;13.418;2022-10-16T04:51:25;18.90;44.00
22827;DHT22;11580;52.562;13.418;2022-10-16T04:53:53;18.80;44.00
22827;DHT22;11580;52.562;13.418;2022-10-16T04:56:21;18.80;44.00
22827;DHT22;11580;52.562;13.418;2022-10-16T04:58:48;18.80;44.80
22827;DHT22;11580;52.562;13.418;2022-10-16T05:01:17;18.80;44.80
22827;DHT22;11580;52.562;13.418;2022-10-16T05:03:44;18.70;44.20
22827;DHT22;11580;52.562;13.418;2022-10-16T05:06:11;18.80;44.20
22827;DHT22;11580;52.562;13.418;2022-10-16T05:08:39;18.70;44.10
22827;DHT22;11580;52.562;13.418;2022-10-16T05:11:06;18.70;44.20
22827;DHT22;11580;52.562;13.418;2022-10-16T05:13:33;18.60;44.10
22827;DHT22;11580;52.562;13.418;2022-10-16T05:16:00;18.60;44.20
22827;DHT22;11580;52.562;13.418;2022-10-16T05:18:29;18.60;44.30
22827;DHT22;11580;52.562;13.418;2022-10-16T05:20:56;18.60;44.50
22827;DHT22;11580;52.562;13.418;2022-10-16T05:23:23;18.60;44.40
22827;DHT22;11580;52.562;13.418;2022-10-16T05:25:54;18.50;44.40
22827;DHT22;11580;52.562;13.418;2022-10-16T05:28:24;18.50;44.90
22827;DHT22;11580;52.562;13.418;2022-10-16T05:30:51;18.50;44.60
22827;DHT22;11580;52.562;13.418;2022-10-16T05:33:20;18.50;44.80
22827;DHT22;11580;52.562;13.418;2022-10-16T05:35:49;18.50;45.00
22827;DHT22;11580;52.562;13.418;2022-10-16T05:38:17;18.50;45.00
22827;DHT22;11580;52.562;13.418;2022-10-16T05:40:50;18.50;45.50
22827;DHT22;11580;52.562;13.418;2022-10-16T05:43:18;18.60;45.40
22827;DHT22;11580;52.562;13.418;2022-10-16T05:45:53;18.60;44.90
22827;DHT22;11580;52.562;13.418;2022-10-16T05:48:21;18.60;45.60
22827;DHT22;11580;52.562;13.418;2022-10-16T05:50:56;18.60;45.10
22827;DHT22;11580;52.562;13.418;2022-10-16T05:53:24;18.70;45.60
22827;DHT22;11580;52.562;13.418;2022-10-16T05:55:52;18.70;45.20
22827;DHT22;11580;52.562;13.418;2022-10-16T05:58:20;18.80;45.40
22827;DHT22;11580;52.562;13.418;2022-10-16T06:00:54;18.80;45.30
22827;DHT22;11580;52.562;13.418;2022-10-16T06:03:22;18.90;45.60
22827;DHT22;11580;52.562;13.418;2022-10-16T06:05:51;19.00;45.20
22827;DHT22;11580;52.562;13.418;2022-10-16T06:08:19;19.00;45.10
22827;DHT22;11580;52.562;13.418;2022-10-16T06:10:59;19.10;45.00
22827;DHT22;11580;52.562;13.418;2022-10-16T06:13:27;19.10;44.90
22827;DHT22;11580;52.562;13.418;2022-10-16T06:15:57;19.20;44.90
22827;DHT22;11580;52.562;13.418;2022-10-16T06:18:25;19.20;45.00
22827;DHT22;11580;52.562;13.418;2022-10-16T06:20:54;19.20;45.60
22827;DHT22;11580;52.562;13.418;2022-10-16T06:23:22;19.30;45.00
22827;DHT22;11580;52.562;13.418;2022-10-16T06:25:50;19.40;45.00
22827;DHT22;11580;52.562;13.418;2022-10-16T06:28:18;19.40;44.90
22827;DHT22;11580;52.562;13.418;2022-10-16T06:30:45;19.50;44.80
22827;DHT22;11580;52.562;13.418;2022-10-16T06:33:12;19.60;44.80
22827;DHT22;11580;52.562;13.418;2022-10-16T06:35:39;19.60;44.70
22827;DHT22;11580;52.562;13.418;2022-10-16T06:38:08;19.70;45.40
22827;DHT22;11580;52.562;13.418;2022-10-16T06:40:35;19.80;44.60
22827;DHT22;11580;52.562;13.418;2022-10-16T06:43:02;19.90;45.30
22827;DHT22;11580;52.562;13.418;2022-10-16T06:45:30;19.90;44.50
22827;DHT22;11580;52.562;13.418;2022-10-16T06:47:58;20.00;44.40
22827;DHT22;11580;52.562;13.418;2022-10-16T06:50:25;20.00;44.20
22827;DHT22;11580;52.562;13.418;2022-10-16T06:52:52;20.10;45.00
22827;DHT22;11580;52.562;13.418;2022-10-16T06:55:20;20.20;45.00
22827;DHT22;11580;52.562;13.418;2022-10-16T06:57:47;20.30;44.20
22827;DHT22;11580;52.562;13.418;2022-10-16T07:00:15;20.30;44.00
22827;DHT22;11580;52.562;13.418;2022-10-16T07:02:42;20.40;43.90
22827;DHT22;11580;52.562;13.418;2022-10-16T07:05:09;20.50;43.90
22827;DHT22;11580;52.562;13.418;2022-10-16T07:07:36;20.60;43.80
22827;DHT22;11580;52.562;13.418;2022-10-16T07:10:04;20.70;43.80
22827;DHT22;11580;52.562;13.418;2022-10-16T07:12:33;20.70;43.40
22827;DHT22;11580;52.562;13.418;2022-10-16T07:15:00;20.80;43.50
22827;DHT22;11580;52.562;13.418;2022-10-16T07:17:27;20.90;43.50
22827;DHT22;11580;52.562;13.418;2022-10-16T07:19:54;21.00;43.60
22827;DHT22;11580;52.562;13.418;2022-10-16T07:22:22;21.10;43.40
22827;DHT22;11580;52.562;13.418;2022-10-16T07:24:49;21.20;43.30
22827;DHT22;11580;52.562;13.418;2022-10-16T07:27:17;21.30;43.10
22827;DHT22;11580;52.562;13.418;2022-10-16T07:29:45;21.40;42.90
22827;DHT22;11580;52.562;13.418;2022-10-16T07:32:12;21.50;42.60
22827;DHT22;11580;52.562;13.418;2022-10-16T07:34:40;21.70;42.90
22827;DHT22;11580;52.562;13.418;2022-10-16T07:37:07;21.70;42.70
22827;DHT22;11580;52.562;13.418;2022-10-16T07:39:34;21.80;42.50
22827;DHT22;11580;52.562;13.418;2022-10-16T07:42:02;21.90;42.20
22827;DHT22;11580;52.562;13.418;2022-10-16T07:44:29;22.00;42.20
22827;DHT22;11580;52.562;13.418;2022-10-16T07:46:57;22.00;42.00
22827;DHT22;11580;52.562;13.418;2022-10-16T07:49:25;22.10;42.40
22827;DHT22;11580;52.562;13.418;2022-10-16T07:51:52;22.20;41.80
22827;DHT22;11580;52.562;13.418;2022-10-16T07:54:19;22.20;41.40
22827;DHT22;11580;52.562;13.418;2022-10-16T07:56:46;22.30;42.00
22827;DHT22;11580;52.562;13.418;2022-10-16T07:59:13;22.30;41.10
22827;DHT22;11580;52.562;13.418;2022-10-16T08:01:41;22.40;41.00
22827;DHT22;11580;52.562;13.418;2022-10-16T08:04:10;22.40;40.90
22827;DHT22;11580;52.562;13.418;2022-10-16T08:06:38;22.40;41.30
22827;DHT22;11580;52.562;13.418;2022-10-16T08:09:07;22.40;40.70
22827;DHT22;11580;52.562;13.418;2022-10-16T08:11:35;22.40;40.60
22827;DHT22;11580;52.562;13.418;2022-10-16T08:14:02;22.40;40.70
22827;DHT22;11580;52.562;13.418;2022-10-16T08:16:29;22.40;40.70
22827;DHT22;11580;52.562;13.418;2022-10-16T08:18:56;22.40;40.70
22827;DHT22;11580;52.562;13.418;2022-10-16T08:21:25;22.40;40.70
22827;DHT22;11580;52.562;13.418;2022-10-16T08:23:53;22.40;40.40
22827;DHT22;11580;52.562;13.418;2022-10-16T08:26:21;22.40;40.50
22827;DHT22;11580;52.562;13.418;2022-10-16T08:28:49;22.40;41.20
22827;DHT22;11580;52.562;13.418;2022-10-16T08:31:17;22.50;41.20
22827;DHT22;11580;52.562;13.418;2022-10-16T08:33:45;22.50;40.50
22827;DHT22;11580;52.562;13.418;2022-10-16T08:36:14;22.50;40.30
22827;DHT22;11580;52.562;13.418;2022-10-16T08:38:46;22.50;40.30
22827;DHT22;11580;52.562;13.418;2022-10-16T08:41:23;22.60;40.20
22827;DHT22;11580;52.562;13.418;2022-10-16T08:44:24;22.60;40.50
22827;DHT22;11580;52.562;13.418;2022-10-16T08:47:02;22.60;39.80
22827;DHT22;11580;52.562;13.418;2022-10-16T08:49:38;22.70;40.20
22827;DHT22;11580;52.562;13.418;2022-10-16T08:52:11;22.70;40.40
22827;DHT22;11580;52.562;13.418;2022-10-16T08:54:44;22.80;40.70
22827;DHT22;11580;52.562;13.418;2022-10-16T08:57:19;22.90;40.50
22827;DHT22;11580;52.562;13.418;2022-10-16T08:59:47;23.00;40.60
22827;DHT22;11580;52.562;13.418;2022-10-16T09:02:24;23.10;40.70
22827;DHT22;11580;52.562;13.418;2022-10-16T09:05:18;23.10;40.00
22827;DHT22;11580;52.562;13.418;2022-10-16T09:08:02;23.20;39.30
22827;DHT22;11580;52.562;13.418;2022-10-16T09:10:46;23.20;39.30
22827;DHT22;11580;52.562;13.418;2022-10-16T09:13:27;23.30;40.10
22827;DHT22;11580;52.562;13.418;2022-10-16T09:16:04;23.40;39.50
22827;DHT22;11580;52.562;13.418;2022-10-16T09:18:43;23.40;39.20
22827;DHT22;11580;52.562;13.418;2022-10-16T09:21:19;23.50;39.60
22827;DHT22;11580;52.562;13.418;2022-10-16T09:23:50;23.60;38.90
22827;DHT22;11580;52.562;13.418;2022-10-16T09:26:19;23.60;39.00
22827;DHT22;11580;52.562;13.418;2022-10-16T09:28:47;23.70;38.60
22827;DHT22;11580;52.562;13.418;2022-10-16T09:31:20;23.70;38.60
22827;DHT22;11580;52.562;13.418;2022-10-16T09:33:51;23.70;37.90
22827;DHT22;11580;52.562;13.418;2022-10-16T09:36:21;23.60;38.00
22827;DHT22;11580;52.562;13.418;2022-10-16T09:39:03;23.60;38.30
22827;DHT22;11580;52.562;13.418;2022-10-16T09:41:34;23.60;37.60
22827;DHT22;11580;52.562;13.418;2022-10-16T09:44:13;23.50;37.70
22827;DHT22;11580;52.562;13.418;2022-10-16T09:46:45;23.50;38.50
22827;DHT22;11580;52.562;13.418;2022-10-16T09:49:21;23.40;38.10
22827;DHT22;11580;52.562;13.418;2022-10-16T09:51:51;23.30;37.60
22827;DHT22;11580;52.562;13.418;2022-10-16T09:54:30;23.30;38.10
22827;DHT22;11580;52.562;13.418;2022-10-16T09:57:06;23.20;38.10
22827;DHT22;11580;52.562;13.418;2022-10-16T09:59:34;23.20;37.80
22827;DHT22;11580;52.562;13.418;2022-10-16T10:02:03;23.20;38.40
22827;DHT22;11580;52.562;13.418;2022-10-16T10:04:40;23.10;38.30
22827;DHT22;11580;52.562;13.418;2022-10-16T10:07:17;23.10;38.50
22827;DHT22;11580;52.562;13.418;2022-10-16T10:09:48;23.20;38.20
22827;DHT22;11580;52.562;13.418;2022-10-16T10:12:20;23.20;38.60
22827;DHT22;11580;52.562;13.418;2022-10-16T10:14:51;23.30;38.00
22827;DHT22;11580;52.562;13.418;2022-10-16T10:17:20;23.30;38.00
22827;DHT22;11580;52.562;13.418;2022-10-16T10:19:52;23.30;37.90
22827;DHT22;11580;52.562;13.418;2022-10-16T10:22:31;23.40;37.80
22827;DHT22;11580;52.562;13.418;2022-10-16T10:25:35;23.40;37.10
22827;DHT22;11580;52.562;13.418;2022-10-16T10:28:36;23.40;37.10
22827;DHT22;11580;52.562;13.418;2022-10-16T10:31:17;23.50;37.10
22827;DHT22;11580;52.562;13.418;2022-10-16T10:33:56;23.50;37.30
22827;DHT22;11580;52.562;13.418;2022-10-16T10:36:30;23.50;37.10
22827;DHT22;11580;52.562;13.418;2022-10-16T10:39:03;23.50;37.30
22827;DHT22;11580;52.562;13.418;2022-10-16T10:41:57;23.50;37.20
22827;DHT22;11580;52.562;13.418;2022-10-16T10:45:11;23.50;36.80
22827;DHT22;11580;52.562;13.418;2022-10-16T10:47:52;23.60;36.90
22827;DHT22;11580;52.562;13.418;2022-10-16T10:50:33;23.60;37.20
22827;DHT22;11580;52.562;13.418;2022-10-16T10:53:22;23.70;37.00
22827;DHT22;11580;52.562;13.418;2022-10-16T10:56:06;23.70;37.20
22827;DHT22;11580;52.562;13.418;2022-10-16T10:59:01;23.90;37.30
22827;DHT22;11580;52.562;13.418;2022-10-16T11:01:54;24.00;36.50
22827;DHT22;11580;52.562;13.418;2022-10-16T11:04:53;24.20;36.40
22827;DHT22;11580;52.562;13.418;2022-10-16T11:07:47;24.40;36.20
22827;DHT22;11580;52.562;13.418;2022-10-16T11:10:21;24.50;36.20
22827;DHT22;11580;52.562;13.418;2022-10-16T11:12:55;24.60;35.80
22827;DHT22;11580;52.562;13.418;2022-10-16T11:15:28;24.70;35.60
22827;DHT22;11580;52.562;13.418;2022-10-16T11:18:04;24.80;35.50
22827;DHT22;11580;52.562;13.418;2022-10-16T11:20:39;24.90;34.50
22827;DHT22;11580;52.562;13.418;2022-10-16T11:23:14;25.00;34.60
22827;DHT22;11580;52.562;13.418;2022-10-16T11:25:45;25.10;34.30
22827;DHT22;11580;52.562;13.418;2022-10-16T11:28:16;25.10;34.80
22827;DHT22;11580;52.562;13.418;2022-10-16T11:30:51;25.10;34.60
22827;DHT22;11580;52.562;13.418;2022-10-16T11:33:29;25.10;33.50
22827;DHT22;11580;52.562;13.418;2022-10-16T11:36:08;25.00;32.90
22827;DHT22;11580;52.562;13.418;2022-10-16T11:38:45;25.00;32.70
22827;DHT22;11580;52.562;13.418;2022-10-16T11:41:26;24.90;32.80
22827;DHT22;11580;52.562;13.418;2022-10-16T11:44:14;24.70;32.30
22827;DHT22;11580;52.562;13.418;2022-10-16T11:46:53;24.60;32.20
22827;DHT22;11580;52.562;13.418;2022-10-16T11:49:31;24.50;32.30
22827;DHT22;11580;52.562;13.418;2022-10-16T11:52:06;24.30;32.40
22827;DHT22;11580;52.562;13.418;2022-10-16T11:54:47;24.20;32.40
22827;DHT22;11580;52.562;13.418;2022-10-16T11:57:21;24.10;33.30
22827;DHT22;11580;52.562;13.418;2022-10-16T11:59:54;24.00;32.90
22827;DHT22;11580;52.562;13.418;2022-10-16T12:02:35;23.90;33.00
22827;DHT22;11580;52.562;13.418;2022-10-16T12:05:22;23.70;32.40
22827;DHT22;11580;52.562;13.418;2022-10-16T12:08:04;23.70;32.50
22827;DHT22;11580;52.562;13.418;2022-10-16T12:10:37;23.60;33.20
22827;DHT22;11580;52.562;13.418;2022-10-16T12:13:31;23.50;33.00
22827;DHT22;11580;52.562;13.418;2022-10-16T12:16:20;23.40;32.20
22827;DHT22;11580;52.562;13.418;2022-10-16T12:19:07;23.30;32.10
22827;DHT22;11580;52.562;13.418;2022-10-16T12:21:40;23.30;32.00
22827;DHT22;11580;52.562;13.418;2022-10-16T12:24:21;23.30;32.50
22827;DHT22;11580;52.562;13.418;2022-10-16T12:26:54;23.30;32.00
22827;DHT22;11580;52.562;13.418;2022-10-16T12:29:30;23.30;32.70
22827;DHT22;11580;52.562;13.418;2022-10-16T12:32:01;23.30;31.80
22827;DHT22;11580;52.562;13.418;2022-10-16T12:34:38;23.30;32.30
22827;DHT22;11580;52.562;13.418;2022-10-16T12:37:14;23.30;30.90
22827;DHT22;11580;52.562;13.418;2022-10-16T12:39:47;23.40;31.10
22827;DHT22;11580;52.562;13.418;2022-10-16T12:42:30;23.40;31.80
22827;DHT22;11580;52.562;13.418;2022-10-16T12:45:00;23.40;30.80
22827;DHT22;11580;52.562;13.418;2022-10-16T12:47:48;23.40;31.50
22827;DHT22;11580;52.562;13.418;2022-10-16T12:50:26;23.40;30.50
22827;DHT22;11580;52.562;13.418;2022-10-16T12:52:58;23.50;30.50
22827;DHT22;11580;52.562;13.418;2022-10-16T12:55:26;23.50;31.00
22827;DHT22;11580;52.562;13.418;2022-10-16T12:58:11;23.50;30.80
22827;DHT22;11580;52.562;13.418;2022-10-16T13:00:57;23.60;30.00
22827;DHT22;11580;52.562;13.418;2022-10-16T13:06:38;23.60;29.80
22827;DHT22;11580;52.562;13.418;2022-10-16T13:09:27;23.70;29.70
22827;DHT22;11580;52.562;13.418;2022-10-16T13:12:14;23.70;29.40
22827;DHT22;11580;52.562;13.418;2022-10-16T13:15:07;23.70;29.50
22827;DHT22;11580;52.562;13.418;2022-10-16T13:17:52;23.70;29.50
22827;DHT22;11580;52.562;13.418;2022-10-16T13:20:31;23.70;29.60
22827;DHT22;11580;52.562;13.418;2022-10-16T13:23:11;23.80;29.60
22827;DHT22;11580;52.562;13.418;2022-10-16T13:25:53;23.80;29.50
22827;DHT22;11580;52.562;13.418;2022-10-16T13:28:32;23.80;29.30
22827;DHT22;11580;52.562;13.418;2022-10-16T13:31:02;23.80;29.60
22827;DHT22;11580;52.562;13.418;2022-10-16T13:33:32;23.80;29.80
22827;DHT22;11580;52.562;13.418;2022-10-16T13:36:02;23.80;29.40
22827;DHT22;11580;52.562;13.418;2022-10-16T13:38:32;23.70;29.60
22827;DHT22;11580;52.562;13.418;2022-10-16T13:41:04;23.70;29.60
22827;DHT22;11580;52.562;13.418;2022-10-16T13:43:34;23.70;29.50
22827;DHT22;11580;52.562;13.418;2022-10-16T13:46:05;23.60;29.50
22827;DHT22;11580;52.562;13.418;2022-10-16T13:48:34;23.60;29.60
22827;DHT22;11580;52.562;13.418;2022-10-16T13:51:04;23.50;29.70
22827;DHT22;11580;52.562;13.418;2022-10-16T13:53:33;23.50;29.80
22827;DHT22;11580;52.562;13.418;2022-10-16T13:56:05;23.40;29.80
22827;DHT22;11580;52.562;13.418;2022-10-16T13:58:33;23.40;29.80
22827;DHT22;11580;52.562;13.418;2022-10-16T14:01:02;23.30;29.90
22827;DHT22;11580;52.562;13.418;2022-10-16T14:03:33;23.30;29.90
22827;DHT22;11580;52.562;13.418;2022-10-16T14:06:04;23.30;29.70
22827;DHT22;11580;52.562;13.418;2022-10-16T14:08:42;23.20;29.60
22827;DHT22;11580;52.562;13.418;2022-10-16T14:11:20;23.20;29.40
22827;DHT22;11580;52.562;13.418;2022-10-16T14:13:50;23.20;29.20
22827;DHT22;11580;52.562;13.418;2022-10-16T14:16:19;23.20;30.20
22827;DHT22;11580;52.562;13.418;2022-10-16T14:18:56;23.20;29.50
22827;DHT22;11580;52.562;13.418;2022-10-16T14:21:26;23.20;29.10
22827;DHT22;11580;52.562;13.418;2022-10-16T14:23:54;23.20;29.60
22827;DHT22;11580;52.562;13.418;2022-10-16T14:26:25;23.20;29.60
22827;DHT22;11580;52.562;13.418;2022-10-16T14:29:12;23.20;29.80
22827;DHT22;11580;52.562;13.418;2022-10-16T14:31:41;23.10;29.00
22827;DHT22;11580;52.562;13.418;2022-10-16T14:34:25;23.10;29.50
22827;DHT22;11580;52.562;13.418;2022-10-16T14:36:54;23.10;29.00
22827;DHT22;11580;52.562;13.418;2022-10-16T14:39:23;23.10;29.50
22827;DHT22;11580;52.562;13.418;2022-10-16T14:41:56;23.00;29.40
22827;DHT22;11580;52.562;13.418;2022-10-16T14:44:28;23.00;29.20
22827;DHT22;11580;52.562;13.418;2022-10-16T14:47:07;23.00;29.80
22827;DHT22;11580;52.562;13.418;2022-10-16T14:49:41;23.00;29.30
22827;DHT22;11580;52.562;13.418;2022-10-16T14:52:10;22.90;29.50
22827;DHT22;11580;52.562;13.418;2022-10-16T14:54:38;22.90;29.80
22827;DHT22;11580;52.562;13.418;2022-10-16T14:57:16;22.80;29.60
22827;DHT22;11580;52.562;13.418;2022-10-16T14:59:46;22.80;29.40
22827;DHT22;11580;52.562;13.418;2022-10-16T15:02:20;22.80;29.70
22827;DHT22;11580;52.562;13.418;2022-10-16T15:04:53;22.80;29.50
22827;DHT22;11580;52.562;13.418;2022-10-16T15:07:21;22.70;29.60
22827;DHT22;11580;52.562;13.418;2022-10-16T15:09:50;22.70;29.60
22827;DHT22;11580;52.562;13.418;2022-10-16T15:12:19;22.70;29.60
22827;DHT22;11580;52.562;13.418;2022-10-16T15:14:52;22.60;29.30
22827;DHT22;11580;52.562;13.418;2022-10-16T15:17:19;22.60;29.50
22827;DHT22;11580;52.562;13.418;2022-10-16T15:19:46;22.50;29.50
22827;DHT22;11580;52.562;13.418;2022-10-16T15:22:14;22.50;29.50
22827;DHT22;11580;52.562;13.418;2022-10-16T15:24:41;22.50;30.00
22827;DHT22;11580;52.562;13.418;2022-10-16T15:27:08;22.40;29.40
22827;DHT22;11580;52.562;13.418;2022-10-16T15:29:37;22.40;29.40
22827;DHT22;11580;52.562;13.418;2022-10-16T15:32:04;22.30;29.20
22827;DHT22;11580;52.562;13.418;2022-10-16T15:34:31;22.30;29.30
22827;DHT22;11580;52.562;13.418;2022-10-16T15:37:02;22.20;29.30
22827;DHT22;11580;52.562;13.418;2022-10-16T15:39:29;22.20;29.00
22827;DHT22;11580;52.562;13.418;2022-10-16T15:41:56;22.10;29.30
22827;DHT22;11580;52.562;13.418;2022-10-16T15:44:24;22.00;29.30
22827;DHT22;11580;52.562;13.418;2022-10-16T15:46:56;21.90;29.20
22827;DHT22;11580;52.562;13.418;2022-10-16T15:49:24;21.90;29.20